< Typhoon 195416 1954 Season Typhoon 195418 >
Typhoon 195417 (OLGA)
General InformationTrack Information on Google Maps || Disaster Info.ResourceGoogle EarthGE AnimationAtom FeedGeoJSON
Detalied Best Track (Time Zone = UTC)
Year Month Day Hour Lat. Long. Pressure (hPa) Wind (kt) Class Image Chart
1954 10 12 00 13.0 159.0 1006 0 2 -- Chart
1954 10 12 06 14.5 158.5 1002 0 2 -- Chart
1954 10 12 12 16.0 158.0 1002 0 2 -- Chart
1954 10 12 18 17.5 157.4 1002 0 2 -- Chart
1954 10 13 00 19.0 156.6 1000 0 2 -- Chart
1954 10 13 06 19.3 155.2 990 0 9 -- Chart
1954 10 13 12 19.8 154.1 990 0 9 -- Chart
1954 10 13 18 20.3 152.9 990 0 9 -- Chart
1954 10 14 00 21.2 151.8 990 0 9 -- Chart
1954 10 14 06 22.4 151.2 980 0 9 -- Chart
1954 10 14 12 23.2 150.9 980 0 9 -- Chart
1954 10 14 18 24.1 150.6 980 0 9 -- Chart
1954 10 15 00 25.0 150.5 940 0 9 -- Chart
1954 10 15 06 25.7 151.0 940 0 9 -- Chart
1954 10 15 12 26.1 151.3 940 0 9 -- Chart
1954 10 15 18 26.7 151.7 940 0 9 -- Chart
1954 10 16 00 27.3 152.2 940 0 9 -- Chart
1954 10 16 06 28.6 153.2 935 0 9 -- Chart
1954 10 16 12 30.0 154.1 940 0 9 -- Chart
1954 10 16 18 31.3 155.0 940 0 9 -- Chart
1954 10 17 00 32.7 156.0 955 0 9 -- Chart
1954 10 17 06 34.0 158.0 955 0 9 -- Chart
1954 10 17 12 35.0 160.5 960 0 9 -- Chart
1954 10 17 18 36.0 163.4 970 0 9 -- Chart
1954 10 18 00 36.8 166.2 980 0 9 -- Chart
1954 10 18 06 37.5 168.8 985 0 9 -- Chart
1954 10 18 12 38.8 173.2 985 0 6 -- Chart
1954 10 18 18 40.0 178.0 985 0 6 -- Chart
1954 10 19 00 41.0 184.0 985 0 6 -- Chart
Japan Meteorological Agency Best Track Data | Correction Date : 1991-07-16
< Typhoon 195416 1954 Season Typhoon 195418 >

Help